sensor_id;sensor_type;location;lat;lon;timestamp;temperature;humidity
2130;DHT22;1071;52.544;13.374;2022-12-07T00:00:53;6.60;99.90
2130;DHT22;1071;52.544;13.374;2022-12-07T00:03:20;6.60;99.90
2130;DHT22;1071;52.544;13.374;2022-12-07T00:05:57;6.60;99.90
2130;DHT22;1071;52.544;13.374;2022-12-07T00:08:30;6.60;99.90
2130;DHT22;1071;52.544;13.374;2022-12-07T00:11:03;6.60;99.90
2130;DHT22;1071;52.544;13.374;2022-12-07T00:13:31;6.50;99.90
2130;DHT22;1071;52.544;13.374;2022-12-07T00:16:00;6.50;99.90
2130;DHT22;1071;52.544;13.374;2022-12-07T00:18:27;6.60;99.90
2130;DHT22;1071;52.544;13.374;2022-12-07T00:21:00;6.60;99.90
2130;DHT22;1071;52.544;13.374;2022-12-07T00:23:28;6.50;99.90
2130;DHT22;1071;52.544;13.374;2022-12-07T00:25:56;6.50;99.90
2130;DHT22;1071;52.544;13.374;2022-12-07T00:28:24;6.50;99.90
2130;DHT22;1071;52.544;13.374;2022-12-07T00:30:51;6.50;99.90
2130;DHT22;1071;52.544;13.374;2022-12-07T00:33:18;6.50;99.90
2130;DHT22;1071;52.544;13.374;2022-12-07T00:35:45;6.50;99.90
2130;DHT22;1071;52.544;13.374;2022-12-07T00:38:13;6.50;99.90
2130;DHT22;1071;52.544;13.374;2022-12-07T00:40:40;6.40;99.90
2130;DHT22;1071;52.544;13.374;2022-12-07T00:43:10;6.40;99.90
2130;DHT22;1071;52.544;13.374;2022-12-07T00:45:41;6.40;99.90
2130;DHT22;1071;52.544;13.374;2022-12-07T00:48:10;6.30;99.90
2130;DHT22;1071;52.544;13.374;2022-12-07T00:50:37;6.30;99.90
2130;DHT22;1071;52.544;13.374;2022-12-07T00:53:04;6.30;99.90
2130;DHT22;1071;52.544;13.374;2022-12-07T00:55:32;6.30;99.90
2130;DHT22;1071;52.544;13.374;2022-12-07T00:57:59;6.30;99.90
2130;DHT22;1071;52.544;13.374;2022-12-07T01:00:26;6.30;99.90
2130;DHT22;1071;52.544;13.374;2022-12-07T01:02:55;6.20;99.90
2130;DHT22;1071;52.544;13.374;2022-12-07T01:05:22;6.20;99.90
2130;DHT22;1071;52.544;13.374;2022-12-07T01:07:48;6.10;99.90
2130;DHT22;1071;52.544;13.374;2022-12-07T01:10:16;6.10;99.90
2130;DHT22;1071;52.544;13.374;2022-12-07T01:12:42;6.10;99.90
2130;DHT22;1071;52.544;13.374;2022-12-07T01:15:10;6.10;99.90
2130;DHT22;1071;52.544;13.374;2022-12-07T01:17:37;6.10;99.90
2130;DHT22;1071;52.544;13.374;2022-12-07T01:20:07;6.10;99.90
2130;DHT22;1071;52.544;13.374;2022-12-07T01:22:36;6.10;99.90
2130;DHT22;1071;52.544;13.374;2022-12-07T01:25:04;6.10;99.90
2130;DHT22;1071;52.544;13.374;2022-12-07T01:27:31;6.00;99.90
2130;DHT22;1071;52.544;13.374;2022-12-07T01:29:59;6.00;99.90
2130;DHT22;1071;52.544;13.374;2022-12-07T01:32:26;6.10;99.90
2130;DHT22;1071;52.544;13.374;2022-12-07T01:34:53;6.10;99.90
2130;DHT22;1071;52.544;13.374;2022-12-07T01:37:21;6.10;99.90
2130;DHT22;1071;52.544;13.374;2022-12-07T01:39:49;6.10;99.90
2130;DHT22;1071;52.544;13.374;2022-12-07T01:42:18;6.10;99.90
2130;DHT22;1071;52.544;13.374;2022-12-07T01:45:21;6.10;99.90
2130;DHT22;1071;52.544;13.374;2022-12-07T01:47:58;6.00;99.90
2130;DHT22;1071;52.544;13.374;2022-12-07T01:50:27;6.10;99.90
2130;DHT22;1071;52.544;13.374;2022-12-07T01:52:59;6.00;99.90
2130;DHT22;1071;52.544;13.374;2022-12-07T01:55:29;6.00;99.90
2130;DHT22;1071;52.544;13.374;2022-12-07T01:58:01;6.00;99.90
2130;DHT22;1071;52.544;13.374;2022-12-07T02:00:29;6.10;99.90
2130;DHT22;1071;52.544;13.374;2022-12-07T02:02:59;6.00;99.90
2130;DHT22;1071;52.544;13.374;2022-12-07T02:05:28;6.00;99.90
2130;DHT22;1071;52.544;13.374;2022-12-07T02:08:00;6.00;99.90
2130;DHT22;1071;52.544;13.374;2022-12-07T02:10:28;6.00;99.90
2130;DHT22;1071;52.544;13.374;2022-12-07T02:12:58;6.00;99.90
2130;DHT22;1071;52.544;13.374;2022-12-07T02:15:31;6.00;99.90
2130;DHT22;1071;52.544;13.374;2022-12-07T02:18:08;6.00;99.90
2130;DHT22;1071;52.544;13.374;2022-12-07T02:20:39;6.00;99.90
2130;DHT22;1071;52.544;13.374;2022-12-07T02:23:46;6.00;99.90
2130;DHT22;1071;52.544;13.374;2022-12-07T02:26:46;5.90;99.90
2130;DHT22;1071;52.544;13.374;2022-12-07T02:29:23;5.90;99.90
2130;DHT22;1071;52.544;13.374;2022-12-07T02:31:58;5.90;99.90
2130;DHT22;1071;52.544;13.374;2022-12-07T02:34:34;5.90;99.90
2130;DHT22;1071;52.544;13.374;2022-12-07T02:37:09;5.90;99.90
2130;DHT22;1071;52.544;13.374;2022-12-07T02:39:43;5.90;99.90
2130;DHT22;1071;52.544;13.374;2022-12-07T02:42:15;5.90;99.90
2130;DHT22;1071;52.544;13.374;2022-12-07T02:44:49;5.80;99.90
2130;DHT22;1071;52.544;13.374;2022-12-07T02:47:29;5.70;99.90
2130;DHT22;1071;52.544;13.374;2022-12-07T02:49:58;5.70;99.90
2130;DHT22;1071;52.544;13.374;2022-12-07T02:52:25;5.70;99.90
2130;DHT22;1071;52.544;13.374;2022-12-07T02:54:52;5.70;99.90
2130;DHT22;1071;52.544;13.374;2022-12-07T02:57:32;5.80;99.90
2130;DHT22;1071;52.544;13.374;2022-12-07T03:00:06;5.80;99.90
2130;DHT22;1071;52.544;13.374;2022-12-07T03:02:46;5.80;99.90
2130;DHT22;1071;52.544;13.374;2022-12-07T03:05:43;5.80;99.90
2130;DHT22;1071;52.544;13.374;2022-12-07T03:08:20;5.80;99.90
2130;DHT22;1071;52.544;13.374;2022-12-07T03:10:54;5.80;99.90
2130;DHT22;1071;52.544;13.374;2022-12-07T03:13:28;5.80;99.90
2130;DHT22;1071;52.544;13.374;2022-12-07T03:16:02;5.80;99.90
2130;DHT22;1071;52.544;13.374;2022-12-07T03:18:35;5.70;99.90
2130;DHT22;1071;52.544;13.374;2022-12-07T03:21:08;5.70;99.90
2130;DHT22;1071;52.544;13.374;2022-12-07T03:23:39;5.70;99.90
2130;DHT22;1071;52.544;13.374;2022-12-07T03:26:09;5.70;99.90
2130;DHT22;1071;52.544;13.374;2022-12-07T03:28:42;5.80;99.90
2130;DHT22;1071;52.544;13.374;2022-12-07T03:31:14;5.80;99.90
2130;DHT22;1071;52.544;13.374;2022-12-07T03:33:47;5.80;99.90
2130;DHT22;1071;52.544;13.374;2022-12-07T03:36:21;5.80;99.90
2130;DHT22;1071;52.544;13.374;2022-12-07T03:38:55;5.80;99.90
2130;DHT22;1071;52.544;13.374;2022-12-07T03:41:26;5.70;99.90
2130;DHT22;1071;52.544;13.374;2022-12-07T03:43:54;5.70;99.90
2130;DHT22;1071;52.544;13.374;2022-12-07T03:46:31;5.70;99.90
2130;DHT22;1071;52.544;13.374;2022-12-07T03:49:06;5.70;99.90
2130;DHT22;1071;52.544;13.374;2022-12-07T03:51:39;5.60;99.90
2130;DHT22;1071;52.544;13.374;2022-12-07T03:54:10;5.60;99.90
2130;DHT22;1071;52.544;13.374;2022-12-07T03:56:40;5.60;99.90
2130;DHT22;1071;52.544;13.374;2022-12-07T03:59:09;5.60;99.90
2130;DHT22;1071;52.544;13.374;2022-12-07T04:01:37;5.50;99.90
2130;DHT22;1071;52.544;13.374;2022-12-07T04:04:04;5.50;99.90
2130;DHT22;1071;52.544;13.374;2022-12-07T04:06:36;5.60;99.90
2130;DHT22;1071;52.544;13.374;2022-12-07T04:09:04;5.60;99.90
2130;DHT22;1071;52.544;13.374;2022-12-07T04:11:31;5.60;99.90
2130;DHT22;1071;52.544;13.374;2022-12-07T04:13:58;5.50;99.90
2130;DHT22;1071;52.544;13.374;2022-12-07T04:16:44;5.60;99.90
2130;DHT22;1071;52.544;13.374;2022-12-07T04:19:11;5.60;99.90
2130;DHT22;1071;52.544;13.374;2022-12-07T04:21:38;5.50;99.90
2130;DHT22;1071;52.544;13.374;2022-12-07T04:24:05;5.50;99.90
2130;DHT22;1071;52.544;13.374;2022-12-07T04:26:33;5.50;99.90
2130;DHT22;1071;52.544;13.374;2022-12-07T04:29:00;5.50;99.90
2130;DHT22;1071;52.544;13.374;2022-12-07T04:31:27;5.60;99.90
2130;DHT22;1071;52.544;13.374;2022-12-07T04:33:56;5.50;99.90
2130;DHT22;1071;52.544;13.374;2022-12-07T04:36:35;5.40;99.90
2130;DHT22;1071;52.544;13.374;2022-12-07T04:39:07;5.40;99.90
2130;DHT22;1071;52.544;13.374;2022-12-07T04:41:37;5.40;99.90
2130;DHT22;1071;52.544;13.374;2022-12-07T04:44:04;5.40;99.90
2130;DHT22;1071;52.544;13.374;2022-12-07T04:46:32;5.40;99.90
2130;DHT22;1071;52.544;13.374;2022-12-07T04:49:04;5.40;99.90
2130;DHT22;1071;52.544;13.374;2022-12-07T04:51:34;5.40;99.90
2130;DHT22;1071;52.544;13.374;2022-12-07T04:54:03;5.40;99.90
2130;DHT22;1071;52.544;13.374;2022-12-07T04:56:30;5.50;99.90
2130;DHT22;1071;52.544;13.374;2022-12-07T04:58:58;5.50;99.90
2130;DHT22;1071;52.544;13.374;2022-12-07T05:01:25;5.60;99.90
2130;DHT22;1071;52.544;13.374;2022-12-07T05:03:52;5.70;99.90
2130;DHT22;1071;52.544;13.374;2022-12-07T05:06:20;5.70;99.90
2130;DHT22;1071;52.544;13.374;2022-12-07T05:08:48;5.80;99.90
2130;DHT22;1071;52.544;13.374;2022-12-07T05:11:15;5.80;99.90
2130;DHT22;1071;52.544;13.374;2022-12-07T05:13:56;5.80;99.90
2130;DHT22;1071;52.544;13.374;2022-12-07T05:16:23;5.90;99.90
2130;DHT22;1071;52.544;13.374;2022-12-07T05:18:50;6.00;99.90
2130;DHT22;1071;52.544;13.374;2022-12-07T05:21:18;6.00;99.90
2130;DHT22;1071;52.544;13.374;2022-12-07T05:23:49;6.00;99.90
2130;DHT22;1071;52.544;13.374;2022-12-07T05:26:16;6.10;99.90
2130;DHT22;1071;52.544;13.374;2022-12-07T05:28:49;6.10;99.90
2130;DHT22;1071;52.544;13.374;2022-12-07T05:31:17;6.10;99.90
2130;DHT22;1071;52.544;13.374;2022-12-07T05:33:47;6.20;99.90
2130;DHT22;1071;52.544;13.374;2022-12-07T05:36:14;6.20;99.90
2130;DHT22;1071;52.544;13.374;2022-12-07T05:38:41;6.20;99.90
2130;DHT22;1071;52.544;13.374;2022-12-07T05:41:14;6.20;99.90
2130;DHT22;1071;52.544;13.374;2022-12-07T05:43:55;6.20;99.90
2130;DHT22;1071;52.544;13.374;2022-12-07T05:46:22;6.20;99.90
2130;DHT22;1071;52.544;13.374;2022-12-07T05:48:49;6.20;99.90
2130;DHT22;1071;52.544;13.374;2022-12-07T05:51:16;6.30;99.90
2130;DHT22;1071;52.544;13.374;2022-12-07T05:53:44;6.30;99.90
2130;DHT22;1071;52.544;13.374;2022-12-07T05:56:12;6.30;99.90
2130;DHT22;1071;52.544;13.374;2022-12-07T05:58:39;6.30;99.90
2130;DHT22;1071;52.544;13.374;2022-12-07T06:01:23;6.30;99.90
2130;DHT22;1071;52.544;13.374;2022-12-07T06:03:50;6.40;99.90
2130;DHT22;1071;52.544;13.374;2022-12-07T06:06:20;6.40;99.90
2130;DHT22;1071;52.544;13.374;2022-12-07T06:08:47;6.40;99.90
2130;DHT22;1071;52.544;13.374;2022-12-07T06:11:15;6.40;99.90
2130;DHT22;1071;52.544;13.374;2022-12-07T06:14:00;6.40;99.90
2130;DHT22;1071;52.544;13.374;2022-12-07T06:16:27;6.40;99.90
2130;DHT22;1071;52.544;13.374;2022-12-07T06:18:54;6.40;99.90
2130;DHT22;1071;52.544;13.374;2022-12-07T06:21:24;6.40;99.90
2130;DHT22;1071;52.544;13.374;2022-12-07T06:23:52;6.50;99.90
2130;DHT22;1071;52.544;13.374;2022-12-07T06:26:21;6.50;99.90
2130;DHT22;1071;52.544;13.374;2022-12-07T06:28:48;6.50;99.90
2130;DHT22;1071;52.544;13.374;2022-12-07T06:31:16;6.50;99.90
2130;DHT22;1071;52.544;13.374;2022-12-07T06:33:43;6.50;99.90
2130;DHT22;1071;52.544;13.374;2022-12-07T06:36:10;6.50;99.90
2130;DHT22;1071;52.544;13.374;2022-12-07T06:38:39;6.50;99.90
2130;DHT22;1071;52.544;13.374;2022-12-07T06:41:06;6.50;99.90
2130;DHT22;1071;52.544;13.374;2022-12-07T06:43:35;6.60;99.90
2130;DHT22;1071;52.544;13.374;2022-12-07T06:46:02;6.60;99.90
2130;DHT22;1071;52.544;13.374;2022-12-07T06:48:29;6.60;99.90
2130;DHT22;1071;52.544;13.374;2022-12-07T06:50:56;6.60;99.90
2130;DHT22;1071;52.544;13.374;2022-12-07T06:53:23;6.60;99.90
2130;DHT22;1071;52.544;13.374;2022-12-07T06:55:50;6.60;99.90
2130;DHT22;1071;52.544;13.374;2022-12-07T06:58:17;6.60;99.90
2130;DHT22;1071;52.544;13.374;2022-12-07T07:00:48;6.60;99.90
2130;DHT22;1071;52.544;13.374;2022-12-07T07:03:15;6.70;99.90
2130;DHT22;1071;52.544;13.374;2022-12-07T07:05:43;6.70;99.90
2130;DHT22;1071;52.544;13.374;2022-12-07T07:08:10;6.70;99.90
2130;DHT22;1071;52.544;13.374;2022-12-07T07:10:37;6.70;99.90
2130;DHT22;1071;52.544;13.374;2022-12-07T07:13:05;6.70;99.90
2130;DHT22;1071;52.544;13.374;2022-12-07T07:15:33;6.70;99.90
2130;DHT22;1071;52.544;13.374;2022-12-07T07:18:02;6.70;99.90
2130;DHT22;1071;52.544;13.374;2022-12-07T07:20:29;6.80;99.90
2130;DHT22;1071;52.544;13.374;2022-12-07T07:22:56;6.80;99.90
2130;DHT22;1071;52.544;13.374;2022-12-07T07:25:23;6.80;99.90
2130;DHT22;1071;52.544;13.374;2022-12-07T07:27:51;6.80;99.90
2130;DHT22;1071;52.544;13.374;2022-12-07T07:30:18;6.80;99.90
2130;DHT22;1071;52.544;13.374;2022-12-07T07:32:45;6.80;99.90
2130;DHT22;1071;52.544;13.374;2022-12-07T07:35:14;6.80;99.90
2130;DHT22;1071;52.544;13.374;2022-12-07T07:37:41;6.80;99.90
2130;DHT22;1071;52.544;13.374;2022-12-07T07:40:09;6.80;99.90
2130;DHT22;1071;52.544;13.374;2022-12-07T07:42:37;6.90;99.90
2130;DHT22;1071;52.544;13.374;2022-12-07T07:45:07;6.90;99.90
2130;DHT22;1071;52.544;13.374;2022-12-07T07:47:34;6.90;99.90
2130;DHT22;1071;52.544;13.374;2022-12-07T07:50:01;6.80;99.90
2130;DHT22;1071;52.544;13.374;2022-12-07T07:52:33;6.80;99.90
2130;DHT22;1071;52.544;13.374;2022-12-07T07:55:10;6.90;99.90
2130;DHT22;1071;52.544;13.374;2022-12-07T07:57:38;6.90;99.90
2130;DHT22;1071;52.544;13.374;2022-12-07T08:00:08;6.90;99.90
2130;DHT22;1071;52.544;13.374;2022-12-07T08:02:38;6.80;99.90
2130;DHT22;1071;52.544;13.374;2022-12-07T08:05:06;6.90;99.90
2130;DHT22;1071;52.544;13.374;2022-12-07T08:07:38;6.90;99.90
2130;DHT22;1071;52.544;13.374;2022-12-07T08:10:07;6.90;99.90
2130;DHT22;1071;52.544;13.374;2022-12-07T08:12:37;6.90;99.90
2130;DHT22;1071;52.544;13.374;2022-12-07T08:15:25;6.80;99.90
2130;DHT22;1071;52.544;13.374;2022-12-07T08:17:53;6.80;99.90
2130;DHT22;1071;52.544;13.374;2022-12-07T08:20:20;6.90;99.90
2130;DHT22;1071;52.544;13.374;2022-12-07T08:22:50;6.80;99.90
2130;DHT22;1071;52.544;13.374;2022-12-07T08:25:17;6.80;99.90
2130;DHT22;1071;52.544;13.374;2022-12-07T08:27:45;6.80;99.90
2130;DHT22;1071;52.544;13.374;2022-12-07T08:30:12;6.80;99.90
2130;DHT22;1071;52.544;13.374;2022-12-07T08:32:40;6.80;99.90
2130;DHT22;1071;52.544;13.374;2022-12-07T08:35:08;6.90;99.90
2130;DHT22;1071;52.544;13.374;2022-12-07T08:37:35;6.90;99.90
2130;DHT22;1071;52.544;13.374;2022-12-07T08:40:04;7.00;99.90
2130;DHT22;1071;52.544;13.374;2022-12-07T08:42:32;6.90;99.90
2130;DHT22;1071;52.544;13.374;2022-12-07T08:45:06;7.00;99.90
2130;DHT22;1071;52.544;13.374;2022-12-07T08:47:34;7.00;99.90
2130;DHT22;1071;52.544;13.374;2022-12-07T08:50:02;7.00;99.90
2130;DHT22;1071;52.544;13.374;2022-12-07T08:52:31;7.00;99.90
2130;DHT22;1071;52.544;13.374;2022-12-07T08:54:59;7.00;99.90
2130;DHT22;1071;52.544;13.374;2022-12-07T08:57:28;7.00;99.90
2130;DHT22;1071;52.544;13.374;2022-12-07T08:59:55;7.00;99.90
2130;DHT22;1071;52.544;13.374;2022-12-07T09:02:24;7.10;99.90
2130;DHT22;1071;52.544;13.374;2022-12-07T09:04:51;7.10;99.90
2130;DHT22;1071;52.544;13.374;2022-12-07T09:07:18;7.10;99.90
2130;DHT22;1071;52.544;13.374;2022-12-07T09:09:45;7.00;99.90
2130;DHT22;1071;52.544;13.374;2022-12-07T09:12:12;7.00;99.90
2130;DHT22;1071;52.544;13.374;2022-12-07T09:14:40;7.10;99.90
2130;DHT22;1071;52.544;13.374;2022-12-07T09:17:09;7.00;99.90
2130;DHT22;1071;52.544;13.374;2022-12-07T09:19:36;7.00;99.90
2130;DHT22;1071;52.544;13.374;2022-12-07T09:22:09;7.00;99.90
2130;DHT22;1071;52.544;13.374;2022-12-07T09:24:43;7.00;99.90
2130;DHT22;1071;52.544;13.374;2022-12-07T09:27:20;6.90;99.90
2130;DHT22;1071;52.544;13.374;2022-12-07T09:29:53;6.90;99.90
2130;DHT22;1071;52.544;13.374;2022-12-07T09:32:21;6.90;99.90
2130;DHT22;1071;52.544;13.374;2022-12-07T09:34:52;6.90;99.90
2130;DHT22;1071;52.544;13.374;2022-12-07T09:37:19;6.90;99.90
2130;DHT22;1071;52.544;13.374;2022-12-07T09:39:46;6.90;99.90
2130;DHT22;1071;52.544;13.374;2022-12-07T09:42:26;6.90;99.90
2130;DHT22;1071;52.544;13.374;2022-12-07T09:44:56;6.90;99.90
2130;DHT22;1071;52.544;13.374;2022-12-07T09:47:24;6.90;99.90
2130;DHT22;1071;52.544;13.374;2022-12-07T09:49:55;6.90;99.90
2130;DHT22;1071;52.544;13.374;2022-12-07T09:52:27;6.90;99.90
2130;DHT22;1071;52.544;13.374;2022-12-07T09:54:55;6.90;99.90
2130;DHT22;1071;52.544;13.374;2022-12-07T09:57:29;6.90;99.90
2130;DHT22;1071;52.544;13.374;2022-12-07T10:00:15;6.90;99.90
2130;DHT22;1071;52.544;13.374;2022-12-07T10:02:47;6.90;99.90
2130;DHT22;1071;52.544;13.374;2022-12-07T10:05:20;6.90;99.90
2130;DHT22;1071;52.544;13.374;2022-12-07T10:07:49;6.90;99.90
2130;DHT22;1071;52.544;13.374;2022-12-07T10:10:19;6.80;99.90
2130;DHT22;1071;52.544;13.374;2022-12-07T10:12:56;6.80;99.90
2130;DHT22;1071;52.544;13.374;2022-12-07T10:15:41;6.80;99.90
2130;DHT22;1071;52.544;13.374;2022-12-07T10:18:27;6.70;99.90
2130;DHT22;1071;52.544;13.374;2022-12-07T10:21:10;6.80;99.90
2130;DHT22;1071;52.544;13.374;2022-12-07T10:23:39;6.70;99.90
2130;DHT22;1071;52.544;13.374;2022-12-07T10:26:26;6.70;99.90
2130;DHT22;1071;52.544;13.374;2022-12-07T10:28:58;6.70;99.90
2130;DHT22;1071;52.544;13.374;2022-12-07T10:31:30;6.70;99.90
2130;DHT22;1071;52.544;13.374;2022-12-07T10:33:58;6.70;99.90
2130;DHT22;1071;52.544;13.374;2022-12-07T10:36:30;6.70;99.90
2130;DHT22;1071;52.544;13.374;2022-12-07T10:39:03;6.80;99.90
2130;DHT22;1071;52.544;13.374;2022-12-07T10:41:31;6.80;99.90
2130;DHT22;1071;52.544;13.374;2022-12-07T10:43:58;6.80;99.90
2130;DHT22;1071;52.544;13.374;2022-12-07T10:46:58;6.80;99.90
2130;DHT22;1071;52.544;13.374;2022-12-07T10:52:49;6.80;99.90
2130;DHT22;1071;52.544;13.374;2022-12-07T10:55:23;6.80;99.90
2130;DHT22;1071;52.544;13.374;2022-12-07T10:58:03;6.80;99.90
2130;DHT22;1071;52.544;13.374;2022-12-07T11:00:39;6.80;99.90
2130;DHT22;1071;52.544;13.374;2022-12-07T11:03:36;6.80;99.90
2130;DHT22;1071;52.544;13.374;2022-12-07T11:06:14;6.80;99.90
2130;DHT22;1071;52.544;13.374;2022-12-07T11:08:57;6.80;99.90
2130;DHT22;1071;52.544;13.374;2022-12-07T11:11:33;6.90;99.90
2130;DHT22;1071;52.544;13.374;2022-12-07T11:14:10;6.90;99.90
2130;DHT22;1071;52.544;13.374;2022-12-07T11:16:50;6.90;99.90
2130;DHT22;1071;52.544;13.374;2022-12-07T11:19:39;6.90;99.90
2130;DHT22;1071;52.544;13.374;2022-12-07T11:22:19;6.90;99.90
2130;DHT22;1071;52.544;13.374;2022-12-07T11:24:52;6.90;99.90
2130;DHT22;1071;52.544;13.374;2022-12-07T11:27:26;6.90;99.90
2130;DHT22;1071;52.544;13.374;2022-12-07T11:30:08;6.90;99.90
2130;DHT22;1071;52.544;13.374;2022-12-07T11:32:53;6.90;99.90
2130;DHT22;1071;52.544;13.374;2022-12-07T11:35:35;6.90;99.90
2130;DHT22;1071;52.544;13.374;2022-12-07T11:38:09;6.90;99.90
2130;DHT22;1071;52.544;13.374;2022-12-07T11:40:40;6.90;99.90
2130;DHT22;1071;52.544;13.374;2022-12-07T11:43:21;6.90;99.90
2130;DHT22;1071;52.544;13.374;2022-12-07T11:45:57;6.80;99.90
2130;DHT22;1071;52.544;13.374;2022-12-07T11:48:31;6.80;99.90
2130;DHT22;1071;52.544;13.374;2022-12-07T11:51:02;6.90;99.90
2130;DHT22;1071;52.544;13.374;2022-12-07T11:53:35;6.90;99.90
2130;DHT22;1071;52.544;13.374;2022-12-07T11:56:09;7.00;99.90
2130;DHT22;1071;52.544;13.374;2022-12-07T11:58:46;7.00;99.90
2130;DHT22;1071;52.544;13.374;2022-12-07T12:01:26;7.00;99.90
2130;DHT22;1071;52.544;13.374;2022-12-07T12:04:02;7.00;99.90
2130;DHT22;1071;52.544;13.374;2022-12-07T12:06:33;7.10;99.90
2130;DHT22;1071;52.544;13.374;2022-12-07T12:09:06;7.10;99.90
2130;DHT22;1071;52.544;13.374;2022-12-07T12:11:56;7.10;99.90
2130;DHT22;1071;52.544;13.374;2022-12-07T12:14:37;7.10;99.90
2130;DHT22;1071;52.544;13.374;2022-12-07T12:20:15;7.20;99.90
2130;DHT22;1071;52.544;13.374;2022-12-07T12:22:48;7.20;99.90
2130;DHT22;1071;52.544;13.374;2022-12-07T12:25:23;7.20;99.90
2130;DHT22;1071;52.544;13.374;2022-12-07T12:27:53;7.30;99.90
2130;DHT22;1071;52.544;13.374;2022-12-07T12:30:29;7.30;99.90
2130;DHT22;1071;52.544;13.374;2022-12-07T12:33:06;7.40;99.90
2130;DHT22;1071;52.544;13.374;2022-12-07T12:35:41;7.30;99.90
2130;DHT22;1071;52.544;13.374;2022-12-07T12:38:30;7.40;99.90
2130;DHT22;1071;52.544;13.374;2022-12-07T12:40:59;7.40;99.90
2130;DHT22;1071;52.544;13.374;2022-12-07T12:43:49;7.40;99.90
2130;DHT22;1071;52.544;13.374;2022-12-07T12:46:46;7.40;99.90
2130;DHT22;1071;52.544;13.374;2022-12-07T12:49:54;7.50;99.90
2130;DHT22;1071;52.544;13.374;2022-12-07T12:52:57;7.40;99.90
2130;DHT22;1071;52.544;13.374;2022-12-07T12:58:41;7.50;99.90
2130;DHT22;1071;52.544;13.374;2022-12-07T13:07:13;7.40;99.90
2130;DHT22;1071;52.544;13.374;2022-12-07T13:10:01;7.40;99.90
2130;DHT22;1071;52.544;13.374;2022-12-07T13:12:30;7.40;99.90
2130;DHT22;1071;52.544;13.374;2022-12-07T13:14:59;7.40;99.90
2130;DHT22;1071;52.544;13.374;2022-12-07T13:17:57;7.40;99.90
2130;DHT22;1071;52.544;13.374;2022-12-07T13:20:50;7.40;99.90
2130;DHT22;1071;52.544;13.374;2022-12-07T13:23:26;7.40;99.90
2130;DHT22;1071;52.544;13.374;2022-12-07T13:26:00;7.40;99.90
2130;DHT22;1071;52.544;13.374;2022-12-07T13:28:35;7.40;99.90
2130;DHT22;1071;52.544;13.374;2022-12-07T13:31:13;7.40;99.90
2130;DHT22;1071;52.544;13.374;2022-12-07T13:33:46;7.40;99.90
2130;DHT22;1071;52.544;13.374;2022-12-07T13:36:19;7.40;99.90
2130;DHT22;1071;52.544;13.374;2022-12-07T13:38:53;7.30;99.90
2130;DHT22;1071;52.544;13.374;2022-12-07T13:41:29;7.30;99.90
2130;DHT22;1071;52.544;13.374;2022-12-07T13:44:03;7.40;99.90
2130;DHT22;1071;52.544;13.374;2022-12-07T13:46:42;7.40;99.90
2130;DHT22;1071;52.544;13.374;2022-12-07T13:49:19;7.40;99.90
2130;DHT22;1071;52.544;13.374;2022-12-07T13:51:47;7.40;99.90
2130;DHT22;1071;52.544;13.374;2022-12-07T13:54:14;7.40;99.90
2130;DHT22;1071;52.544;13.374;2022-12-07T13:56:48;7.40;99.90
2130;DHT22;1071;52.544;13.374;2022-12-07T13:59:22;7.50;99.90
2130;DHT22;1071;52.544;13.374;2022-12-07T14:01:52;7.50;99.90
2130;DHT22;1071;52.544;13.374;2022-12-07T14:04:30;7.50;99.90
2130;DHT22;1071;52.544;13.374;2022-12-07T14:06:58;7.50;99.90
2130;DHT22;1071;52.544;13.374;2022-12-07T14:09:27;7.50;99.90
2130;DHT22;1071;52.544;13.374;2022-12-07T14:11:56;7.50;99.90
2130;DHT22;1071;52.544;13.374;2022-12-07T14:14:26;7.50;99.90
2130;DHT22;1071;52.544;13.374;2022-12-07T14:17:01;7.50;99.90
2130;DHT22;1071;52.544;13.374;2022-12-07T14:19:47;7.40;99.90
2130;DHT22;1071;52.544;13.374;2022-12-07T14:22:24;7.40;99.90
2130;DHT22;1071;52.544;13.374;2022-12-07T14:24:59;7.40;99.90
2130;DHT22;1071;52.544;13.374;2022-12-07T14:27:31;7.40;99.90
2130;DHT22;1071;52.544;13.374;2022-12-07T14:30:01;7.40;99.90
2130;DHT22;1071;52.544;13.374;2022-12-07T14:32:35;7.40;99.90
2130;DHT22;1071;52.544;13.374;2022-12-07T14:35:09;7.40;99.90
2130;DHT22;1071;52.544;13.374;2022-12-07T14:37:39;7.40;99.90
2130;DHT22;1071;52.544;13.374;2022-12-07T14:40:11;7.40;99.90
2130;DHT22;1071;52.544;13.374;2022-12-07T14:42:39;7.40;99.90
2130;DHT22;1071;52.544;13.374;2022-12-07T14:45:13;7.30;99.90
2130;DHT22;1071;52.544;13.374;2022-12-07T14:47:43;7.40;99.90
2130;DHT22;1071;52.544;13.374;2022-12-07T14:50:17;7.40;99.90
2130;DHT22;1071;52.544;13.374;2022-12-07T14:52:47;7.40;99.90
2130;DHT22;1071;52.544;13.374;2022-12-07T14:55:26;7.40;99.90
2130;DHT22;1071;52.544;13.374;2022-12-07T14:57:53;7.40;99.90
2130;DHT22;1071;52.544;13.374;2022-12-07T15:00:22;7.40;99.90
2130;DHT22;1071;52.544;13.374;2022-12-07T15:02:51;7.30;99.90
2130;DHT22;1071;52.544;13.374;2022-12-07T15:05:18;7.30;99.90
2130;DHT22;1071;52.544;13.374;2022-12-07T15:07:46;7.30;99.90
2130;DHT22;1071;52.544;13.374;2022-12-07T15:10:20;7.20;99.90
2130;DHT22;1071;52.544;13.374;2022-12-07T15:12:47;7.30;99.90
2130;DHT22;1071;52.544;13.374;2022-12-07T15:15:14;7.20;99.90
2130;DHT22;1071;52.544;13.374;2022-12-07T15:17:42;7.20;99.90
2130;DHT22;1071;52.544;13.374;2022-12-07T15:20:12;7.20;99.90
2130;DHT22;1071;52.544;13.374;2022-12-07T15:22:39;7.10;99.90
2130;DHT22;1071;52.544;13.374;2022-12-07T15:25:08;7.10;99.90
2130;DHT22;1071;52.544;13.374;2022-12-07T15:27:35;7.10;99.90
2130;DHT22;1071;52.544;13.374;2022-12-07T15:30:05;7.10;99.90
2130;DHT22;1071;52.544;13.374;2022-12-07T15:32:32;7.10;99.90
2130;DHT22;1071;52.544;13.374;2022-12-07T15:34:59;7.00;99.90
2130;DHT22;1071;52.544;13.374;2022-12-07T15:37:28;7.00;99.90
2130;DHT22;1071;52.544;13.374;2022-12-07T15:39:55;7.00;99.90
2130;DHT22;1071;52.544;13.374;2022-12-07T15:42:22;7.00;99.90
2130;DHT22;1071;52.544;13.374;2022-12-07T15:44:49;6.90;99.90
2130;DHT22;1071;52.544;13.374;2022-12-07T15:47:30;6.90;99.90
2130;DHT22;1071;52.544;13.374;2022-12-07T15:49:57;7.00;99.90
2130;DHT22;1071;52.544;13.374;2022-12-07T15:52:24;6.90;99.90
2130;DHT22;1071;52.544;13.374;2022-12-07T15:54:53;6.90;99.90
2130;DHT22;1071;52.544;13.374;2022-12-07T15:57:20;7.00;99.90
2130;DHT22;1071;52.544;13.374;2022-12-07T15:59:47;7.00;99.90
2130;DHT22;1071;52.544;13.374;2022-12-07T16:02:14;7.00;99.90
2130;DHT22;1071;52.544;13.374;2022-12-07T16:04:41;7.00;99.90
2130;DHT22;1071;52.544;13.374;2022-12-07T16:07:09;7.00;99.90
2130;DHT22;1071;52.544;13.374;2022-12-07T16:09:37;6.90;99.90
2130;DHT22;1071;52.544;13.374;2022-12-07T16:12:06;7.00;99.90
2130;DHT22;1071;52.544;13.374;2022-12-07T16:14:33;7.00;99.90
2130;DHT22;1071;52.544;13.374;2022-12-07T16:17:00;7.00;99.90
2130;DHT22;1071;52.544;13.374;2022-12-07T16:19:27;6.90;99.90
2130;DHT22;1071;52.544;13.374;2022-12-07T16:21:55;6.90;99.90
2130;DHT22;1071;52.544;13.374;2022-12-07T16:24:22;6.90;99.90
2130;DHT22;1071;52.544;13.374;2022-12-07T16:26:49;6.90;99.90
2130;DHT22;1071;52.544;13.374;2022-12-07T16:29:19;6.90;99.90
2130;DHT22;1071;52.544;13.374;2022-12-07T16:31:47;7.00;99.90
2130;DHT22;1071;52.544;13.374;2022-12-07T16:34:14;6.90;99.90
2130;DHT22;1071;52.544;13.374;2022-12-07T16:36:47;6.90;99.90
2130;DHT22;1071;52.544;13.374;2022-12-07T16:39:26;6.80;99.90
2130;DHT22;1071;52.544;13.374;2022-12-07T16:41:53;6.70;99.90
2130;DHT22;1071;52.544;13.374;2022-12-07T16:44:22;6.70;99.90
2130;DHT22;1071;52.544;13.374;2022-12-07T16:46:49;6.70;99.90